createdAt,value
2022-08-02T00:04:34.916Z,15.7
2022-08-02T00:19:03.212Z,15.4
2022-08-02T00:34:38.269Z,15.4
2022-08-02T00:48:43.633Z,15.1
2022-08-02T01:03:08.914Z,15.3
2022-08-02T01:17:37.281Z,15.2
2022-08-02T01:32:05.741Z,15.1
2022-08-02T01:46:33.938Z,15
2022-08-02T02:01:01.880Z,15.1
2022-08-02T02:15:29.838Z,14.8
2022-08-02T02:29:57.498Z,15
2022-08-02T02:44:25.463Z,14.7
2022-08-02T02:58:53.665Z,14.8
2022-08-02T03:13:22.369Z,14.5
2022-08-02T03:27:50.757Z,14.8
2022-08-02T03:42:18.002Z,14.8
2022-08-02T03:56:46.711Z,14.4
2022-08-02T04:11:14.868Z,14.2
2022-08-02T04:25:42.993Z,14.6
2022-08-02T04:40:10.500Z,14.6
2022-08-02T04:54:38.556Z,14.9
2022-08-02T05:09:07.881Z,15.4
2022-08-02T05:23:37.069Z,15.3
2022-08-02T05:38:10.617Z,15.5
2022-08-02T05:52:36.028Z,15.9
2022-08-02T06:07:05.568Z,16.9
2022-08-02T06:22:38.175Z,17.1
2022-08-02T06:36:43.466Z,17.7
2022-08-02T06:51:11.068Z,18.5
2022-08-02T07:05:40.619Z,18.6
2022-08-02T07:20:10.713Z,18.3
2022-08-02T07:34:55.807Z,18.2
2022-08-02T07:49:30.275Z,16.7
2022-08-02T08:04:04.428Z,16.5
2022-08-02T08:18:34.805Z,16.8
2022-08-02T08:33:09.376Z,15.7
2022-08-02T08:47:39.579Z,16.6
2022-08-02T09:02:28.873Z,15.1
2022-08-02T09:16:45.074Z,14.9
2022-08-02T09:31:13.501Z,14.7
2022-08-02T09:45:32.433Z,15.2
2022-08-02T09:59:57.127Z,14.5
2022-08-02T10:14:26.569Z,15.1
2022-08-02T10:28:52.748Z,14.8
2022-08-02T10:43:24.527Z,14.4
2022-08-02T10:57:52.022Z,15.2
2022-08-02T11:12:16.741Z,14.6
2022-08-02T11:26:45.077Z,14.6
2022-08-02T11:41:13.264Z,15
2022-08-02T11:55:59.157Z,15.3
2022-08-02T12:10:31.568Z,15.1
2022-08-02T12:25:00.528Z,14.4
2022-08-02T12:39:23.424Z,15
2022-08-02T12:54:00.651Z,14.9
2022-08-02T13:08:18.568Z,15.1
2022-08-02T13:22:53.948Z,13.5
2022-08-02T13:37:14.871Z,14.8
2022-08-02T13:51:41.975Z,14
2022-08-02T14:06:10.556Z,13.1
2022-08-02T14:20:37.249Z,13.7
2022-08-02T14:35:03.578Z,14
2022-08-02T14:49:31.514Z,13.8
2022-08-02T15:03:57.995Z,13.7
2022-08-02T15:18:26.746Z,14.1
2022-08-02T15:32:54.166Z,14.1
2022-08-02T15:47:16.854Z,14.3
2022-08-02T16:01:48.644Z,14.7
2022-08-02T16:16:12.708Z,14.8
2022-08-02T16:30:38.821Z,14.3
2022-08-02T16:45:07.172Z,13.8
2022-08-02T16:59:58.810Z,14.8
2022-08-02T17:14:11.852Z,14.2
2022-08-02T17:29:18.442Z,14.1
2022-08-02T17:43:41.542Z,14.2
2022-08-02T17:58:01.791Z,14.4
2022-08-02T18:12:28.606Z,14.3
2022-08-02T18:26:56.447Z,14.1
2022-08-02T18:41:25.006Z,14.6
2022-08-02T18:56:04.497Z,14.9
2022-08-02T19:10:25.435Z,15.4
2022-08-02T19:24:50.991Z,15
2022-08-02T19:39:17.405Z,15.1
2022-08-02T19:53:49.725Z,15.3
2022-08-02T20:08:37.798Z,15.4
2022-08-02T20:22:52.909Z,15.7
2022-08-02T20:38:05.171Z,15.8
2022-08-02T20:52:24.920Z,16
2022-08-02T21:06:44.718Z,16.2
2022-08-02T21:21:09.866Z,16.3
2022-08-02T21:35:35.571Z,16.2
2022-08-02T21:50:20.304Z,16.2
2022-08-02T22:04:48.628Z,16.2
2022-08-02T22:19:07.119Z,16.3
2022-08-02T22:34:03.944Z,16.2
2022-08-02T22:48:15.928Z,16.3
2022-08-02T23:02:45.558Z,16.2
2022-08-02T23:17:10.131Z,16.2
2022-08-02T23:31:38.729Z,16.1
2022-08-02T23:46:03.993Z,16.1
